Time;durP1;ratioP1;P1;durP2;ratioP2;P2;SDS_P1;SDS_P2;PMS_P1;PMS_P2;Temp;Humidity;BMP_temperature;BMP_pressure;BME280_temperature;BME280_humidity;BME280_pressure;Samples;Min_cycle;Max_cycle;Signal;HPM_P1;HPM_P2
2022/03/31 00:00:31;;;;;;;18.87;12.97;;;9.40;71.90;;;;;;5057769;28;20450;-44
2022/03/31 00:02:59;;;;;;;18.50;13.40;;;9.40;71.20;;;;;;5056344;28;20539;-44
2022/03/31 00:05:26;;;;;;;18.60;12.40;;;9.40;71.10;;;;;;5043436;28;20450;-44
2022/03/31 00:07:57;;;;;;;17.27;13.60;;;9.40;71.10;;;;;;5060535;28;20460;-44
2022/03/31 00:10:25;;;;;;;17.60;12.57;;;9.40;70.80;;;;;;5060517;28;20466;-44
2022/03/31 00:12:54;;;;;;;19.03;12.77;;;9.40;71.00;;;;;;5055323;28;20463;-44
2022/03/31 00:15:22;;;;;;;17.30;12.33;;;9.40;71.10;;;;;;5055709;28;20469;-44
2022/03/31 00:17:49;;;;;;;18.20;12.30;;;9.40;70.80;;;;;;5044428;28;20462;-44
2022/03/31 00:20:16;;;;;;;17.33;13.13;;;9.40;70.60;;;;;;5055628;28;20454;-44
2022/03/31 00:22:43;;;;;;;21.50;13.87;;;9.40;70.70;;;;;;5054275;28;20466;-44
2022/03/31 00:25:11;;;;;;;20.77;14.20;;;9.30;70.80;;;;;;5056954;28;20967;-44
2022/03/31 00:27:39;;;;;;;20.13;13.03;;;9.30;70.90;;;;;;5056975;28;20945;-44
2022/03/31 00:30:08;;;;;;;20.10;14.03;;;9.30;71.40;;;;;;5057187;28;20454;-44
2022/03/31 00:32:36;;;;;;;18.87;12.80;;;9.30;71.20;;;;;;5055394;28;20466;-44
2022/03/31 00:35:04;;;;;;;19.20;13.00;;;9.30;71.50;;;;;;5055939;28;20454;-44
2022/03/31 00:37:31;;;;;;;23.50;14.67;;;9.30;71.80;;;;;;5056455;28;20463;-44
2022/03/31 00:39:57;;;;;;;21.03;12.70;;;9.30;72.00;;;;;;5063343;28;20600;-44
2022/03/31 00:42:25;;;;;;;19.50;14.37;;;9.20;71.70;;;;;;5059510;28;20458;-44
2022/03/31 00:44:52;;;;;;;25.67;12.97;;;9.20;71.90;;;;;;5055495;28;20553;-43
2022/03/31 00:47:19;;;;;;;19.73;13.07;;;9.20;72.50;;;;;;5059882;28;20469;-44
2022/03/31 00:49:46;;;;;;;20.27;13.67;;;9.20;72.60;;;;;;5059949;28;20540;-44
2022/03/31 00:52:13;;;;;;;19.97;13.27;;;9.20;72.90;;;;;;5059829;28;20466;-43
2022/03/31 00:54:41;;;;;;;19.30;12.80;;;9.30;72.90;;;;;;5062210;28;20460;-43
2022/03/31 00:57:12;;;;;;;17.27;12.70;;;9.30;72.20;;;;;;5055941;28;20488;-43
2022/03/31 00:59:39;;;;;;;16.00;11.87;;;9.30;71.60;;;;;;5060884;28;20474;-44
2022/03/31 01:02:08;;;;;;;19.17;12.80;;;9.30;71.60;;;;;;5058367;28;20461;-44
2022/03/31 01:04:36;;;;;;;20.47;14.50;;;9.20;72.20;;;;;;5056461;28;20544;-44
2022/03/31 01:07:03;;;;;;;23.40;14.37;;;9.20;71.80;;;;;;5055101;28;20458;-44
2022/03/31 01:09:32;;;;;;;19.03;12.87;;;9.20;71.90;;;;;;5058330;28;20985;-44
2022/03/31 01:12:01;;;;;;;21.60;13.23;;;9.20;72.10;;;;;;5057010;28;20470;-44
2022/03/31 01:14:29;;;;;;;20.33;13.00;;;9.20;71.40;;;;;;5048235;28;20480;-44
2022/03/31 01:16:56;;;;;;;23.97;14.93;;;9.10;71.50;;;;;;5059661;28;20561;-44
2022/03/31 01:19:23;;;;;;;16.80;12.37;;;9.10;71.40;;;;;;5057461;28;20487;-44
2022/03/31 01:21:50;;;;;;;17.50;12.93;;;9.10;71.40;;;;;;5057689;28;20464;-44
2022/03/31 01:24:18;;;;;;;19.20;13.53;;;9.10;71.30;;;;;;5054888;28;20545;-44
2022/03/31 01:26:45;;;;;;;19.37;12.70;;;9.10;71.30;;;;;;5059059;28;20979;-44
2022/03/31 01:29:13;;;;;;;21.33;12.50;;;9.00;71.50;;;;;;5058167;28;21276;-44
2022/03/31 01:31:39;;;;;;;16.87;13.17;;;9.00;71.90;;;;;;5055170;28;20838;-44
2022/03/31 01:34:08;;;;;;;19.70;13.60;;;9.00;71.70;;;;;;5059402;28;20549;-44
2022/03/31 01:36:36;;;;;;;19.50;12.93;;;9.00;72.20;;;;;;5057996;28;20469;-44
2022/03/31 01:39:04;;;;;;;17.43;12.33;;;9.00;72.20;;;;;;5055162;28;20986;-44
2022/03/31 01:41:31;;;;;;;17.10;13.30;;;9.00;72.60;;;;;;5056675;28;20819;-44
2022/03/31 01:43:58;;;;;;;18.50;13.20;;;9.00;72.40;;;;;;5059812;28;20463;-44
2022/03/31 01:46:25;;;;;;;18.00;12.20;;;8.90;72.10;;;;;;5058669;28;20481;-44
2022/03/31 01:48:52;;;;;;;16.00;11.87;;;8.90;72.20;;;;;;5057107;28;20476;-44
2022/03/31 01:51:19;;;;;;;22.50;13.43;;;8.90;72.40;;;;;;5063014;28;20542;-44
2022/03/31 01:53:47;;;;;;;16.53;11.30;;;8.90;72.50;;;;;;5043458;28;20467;-44
2022/03/31 01:56:14;;;;;;;17.13;13.00;;;8.90;72.50;;;;;;5058758;28;20466;-44
2022/03/31 01:58:40;;;;;;;20.00;12.63;;;8.80;72.70;;;;;;5057989;28;21006;-44
2022/03/31 02:01:07;;;;;;;19.70;12.50;;;8.80;72.40;;;;;;5063763;28;20469;-44
2022/03/31 02:03:34;;;;;;;18.03;13.17;;;8.80;72.10;;;;;;5056171;28;20468;-44
2022/03/31 02:06:01;;;;;;;18.33;12.50;;;8.80;72.50;;;;;;5061632;28;20452;-44
2022/03/31 02:08:29;;;;;;;16.63;12.23;;;8.70;72.80;;;;;;5060489;28;21314;-44
2022/03/31 02:10:55;;;;;;;20.20;12.30;;;8.80;72.70;;;;;;5056830;28;20677;-44
2022/03/31 02:13:23;;;;;;;16.80;11.00;;;8.70;72.00;;;;;;5059091;28;20473;-44
2022/03/31 02:15:50;;;;;;;21.13;12.30;;;8.70;71.90;;;;;;5057432;28;20467;-44
2022/03/31 02:18:17;;;;;;;20.33;12.40;;;8.70;72.50;;;;;;5046111;28;20463;-44
2022/03/31 02:20:44;;;;;;;19.33;12.50;;;8.70;72.20;;;;;;5061639;28;20827;-44
2022/03/31 02:23:11;;;;;;;18.10;13.47;;;8.70;71.70;;;;;;5056778;28;20846;-44
2022/03/31 02:25:38;;;;;;;18.20;12.57;;;8.70;71.70;;;;;;5050344;28;20461;-44
2022/03/31 02:28:05;;;;;;;17.67;11.30;;;8.70;71.60;;;;;;5063434;28;20454;-44
2022/03/31 02:30:33;;;;;;;16.20;11.90;;;8.50;71.20;;;;;;5059020;28;20972;-44
2022/03/31 02:33:00;;;;;;;19.07;11.63;;;8.50;72.10;;;;;;5056127;28;20469;-44
2022/03/31 02:35:27;;;;;;;21.93;13.10;;;8.50;72.70;;;;;;5058401;28;20462;-44
2022/03/31 02:37:54;;;;;;;17.33;12.10;;;8.50;72.50;;;;;;5058771;28;20471;-44
2022/03/31 02:40:20;;;;;;;16.70;11.70;;;8.50;72.80;;;;;;5056656;28;20494;-44
2022/03/31 02:42:48;;;;;;;17.93;10.87;;;8.50;72.60;;;;;;5059295;28;20458;-44
2022/03/31 02:45:14;;;;;;;16.53;11.30;;;8.60;71.90;;;;;;5062399;28;20450;-44
2022/03/31 02:47:44;;;;;;;18.27;11.23;;;8.50;72.20;;;;;;5057636;28;20483;-44
2022/03/31 02:50:13;;;;;;;20.63;13.30;;;8.60;72.90;;;;;;5048116;28;20935;-45
2022/03/31 02:55:25;;;;;;;17.20;12.50;;;8.60;72.50;;;;;;5044671;28;20467;-45
2022/03/31 02:57:57;;;;;;;20.90;13.13;;;8.50;72.60;;;;;;5056276;28;20843;-45
2022/03/31 03:00:24;;;;;;;18.70;12.70;;;8.50;72.70;;;;;;5056821;28;20491;-45
2022/03/31 03:02:51;;;;;;;22.23;12.03;;;8.50;72.80;;;;;;5053927;28;20455;-45
2022/03/31 03:05:18;;;;;;;22.00;12.90;;;8.50;72.80;;;;;;5055191;28;20522;-45
2022/03/31 03:07:48;;;;;;;19.50;13.53;;;8.50;72.20;;;;;;5056979;28;20951;-45
2022/03/31 03:10:15;;;;;;;18.20;11.60;;;8.50;72.10;;;;;;5040825;28;20839;-45
2022/03/31 03:12:42;;;;;;;22.37;12.67;;;8.40;71.90;;;;;;5038136;28;20468;-45
2022/03/31 03:15:10;;;;;;;22.27;13.30;;;8.40;72.40;;;;;;5046022;28;20465;-46
2022/03/31 03:17:45;;;;;;;19.07;11.47;;;8.40;72.70;;;;;;5061424;28;20458;-45
2022/03/31 03:20:13;;;;;;;23.60;13.73;;;8.40;71.90;;;;;;5053723;28;20497;-45
2022/03/31 03:22:41;;;;;;;18.00;11.93;;;8.30;71.50;;;;;;5058722;28;20471;-45
2022/03/31 03:25:09;;;;;;;19.33;12.30;;;8.30;72.20;;;;;;5054580;28;20460;-45
2022/03/31 03:27:35;;;;;;;18.33;12.30;;;8.30;72.30;;;;;;5053702;28;20469;-45
2022/03/31 03:30:03;;;;;;;20.50;12.50;;;8.20;72.70;;;;;;5059681;28;20478;-45
2022/03/31 03:32:29;;;;;;;15.63;9.90;;;8.30;73.00;;;;;;5059786;28;20456;-45
2022/03/31 03:34:56;;;;;;;17.87;11.80;;;8.30;72.30;;;;;;5053971;28;20550;-45
2022/03/31 03:37:23;;;;;;;20.87;12.20;;;8.30;72.40;;;;;;5057559;28;20506;-45
2022/03/31 03:39:50;;;;;;;21.43;11.90;;;8.30;71.90;;;;;;5026456;28;20514;-45
2022/03/31 03:42:16;;;;;;;17.50;11.63;;;8.30;71.30;;;;;;5044187;28;20458;-45
2022/03/31 03:44:43;;;;;;;20.60;11.00;;;8.30;71.30;;;;;;5055608;28;20459;-45
2022/03/31 03:47:10;;;;;;;21.67;13.50;;;8.30;72.30;;;;;;5057544;28;20483;-45
2022/03/31 03:49:36;;;;;;;23.73;13.17;;;8.20;72.30;;;;;;5043154;28;20462;-45
2022/03/31 03:52:04;;;;;;;18.30;12.40;;;8.10;72.00;;;;;;5058250;28;20454;-45
2022/03/31 03:54:30;;;;;;;24.03;12.17;;;8.10;72.20;;;;;;5058936;28;20464;-45
2022/03/31 03:56:57;;;;;;;18.83;12.03;;;8.10;72.10;;;;;;5059762;28;20462;-45
2022/03/31 03:59:24;;;;;;;20.47;13.40;;;8.10;72.40;;;;;;5029756;28;20490;-45
2022/03/31 04:01:51;;;;;;;21.63;13.20;;;8.10;73.10;;;;;;5057167;28;20818;-45
2022/03/31 04:04:18;;;;;;;22.27;13.97;;;8.10;72.90;;;;;;5054842;28;20455;-45
2022/03/31 04:06:49;;;;;;;22.90;13.03;;;8.10;72.80;;;;;;5059947;28;20824;-45
2022/03/31 04:09:16;;;;;;;19.00;13.50;;;8.10;72.90;;;;;;5060451;28;20470;-45
2022/03/31 04:11:42;;;;;;;20.63;12.43;;;8.00;73.00;;;;;;5053898;28;20732;-45
2022/03/31 04:14:09;;;;;;;23.33;14.43;;;8.00;73.60;;;;;;5043312;28;20964;-45
2022/03/31 04:16:36;;;;;;;21.03;13.43;;;7.90;73.70;;;;;;5057653;28;20895;-45
2022/03/31 04:19:07;;;;;;;20.40;12.70;;;7.90;73.80;;;;;;5043285;28;20478;-45
2022/03/31 04:21:35;;;;;;;21.90;13.00;;;7.90;74.30;;;;;;5057722;28;20466;-45
2022/03/31 04:24:03;;;;;;;21.57;14.30;;;7.90;73.70;;;;;;5039070;28;20459;-45
2022/03/31 04:26:31;;;;;;;27.03;13.83;;;7.90;73.30;;;;;;5046899;28;20459;-45
2022/03/31 04:28:57;;;;;;;18.63;14.03;;;7.90;73.50;;;;;;5057050;28;20461;-45
2022/03/31 04:31:29;;;;;;;20.93;12.10;;;7.90;73.20;;;;;;5056530;28;21050;-45
2022/03/31 04:33:56;;;;;;;21.90;13.87;;;7.90;73.10;;;;;;5056850;28;20565;-45
2022/03/31 04:36:22;;;;;;;23.57;13.40;;;7.80;73.40;;;;;;5056852;28;20972;-45
2022/03/31 04:38:49;;;;;;;20.80;13.17;;;7.80;74.10;;;;;;5055813;28;20454;-45
2022/03/31 04:41:16;;;;;;;22.07;13.43;;;7.80;74.40;;;;;;5056664;28;20455;-45
2022/03/31 04:43:42;;;;;;;19.43;12.07;;;7.80;74.50;;;;;;5040973;28;21094;-45
2022/03/31 04:46:09;;;;;;;24.77;15.17;;;7.80;74.30;;;;;;5055791;28;20487;-45
2022/03/31 04:48:36;;;;;;;22.13;13.53;;;7.70;74.50;;;;;;5056968;28;20508;-46
2022/03/31 04:51:03;;;;;;;23.10;12.93;;;7.70;74.70;;;;;;5058684;28;20463;-45
2022/03/31 04:53:30;;;;;;;23.07;14.40;;;7.70;74.60;;;;;;5041962;28;20467;-45
2022/03/31 04:55:56;;;;;;;20.67;13.27;;;7.70;74.60;;;;;;5054489;28;20462;-45
2022/03/31 04:58:24;;;;;;;22.57;12.10;;;7.60;74.90;;;;;;5058287;28;20545;-45
2022/03/31 05:00:51;;;;;;;20.47;14.17;;;7.70;74.50;;;;;;5059628;28;20477;-45
2022/03/31 05:03:18;;;;;;;19.97;13.47;;;7.60;74.60;;;;;;5052719;28;20465;-45
2022/03/31 05:05:45;;;;;;;19.23;12.40;;;7.60;74.40;;;;;;5041419;28;20461;-46
2022/03/31 05:08:12;;;;;;;20.37;12.27;;;7.60;74.40;;;;;;5053926;28;20457;-45
2022/03/31 05:10:41;;;;;;;20.03;11.90;;;7.50;74.70;;;;;;5058017;28;20561;-45
2022/03/31 05:13:08;;;;;;;23.50;12.80;;;7.50;74.30;;;;;;5061243;28;20773;-45
2022/03/31 05:15:35;;;;;;;22.60;13.40;;;7.60;73.90;;;;;;5042101;28;20456;-45
2022/03/31 05:18:02;;;;;;;20.03;12.57;;;7.50;74.40;;;;;;5060186;28;20491;-45
2022/03/31 05:20:28;;;;;;;19.70;11.90;;;7.50;74.50;;;;;;5062525;28;20494;-45
2022/03/31 05:22:55;;;;;;;20.43;12.07;;;7.50;74.10;;;;;;5039706;28;20463;-45
2022/03/31 05:25:22;;;;;;;18.07;11.60;;;7.50;74.30;;;;;;5063054;28;20926;-45
2022/03/31 05:27:49;;;;;;;21.43;13.33;;;7.50;74.50;;;;;;5043382;28;20822;-45
2022/03/31 05:32:53;;;;;;;21.53;12.27;;;7.50;74.40;;;;;;4820181;22;20516;-46
2022/03/31 05:35:21;;;;;;;25.90;13.63;;;7.40;74.50;;;;;;5041534;28;20466;-46
2022/03/31 05:37:48;;;;;;;20.37;12.03;;;7.40;74.70;;;;;;5063496;28;20457;-46
2022/03/31 05:40:17;;;;;;;23.43;13.60;;;7.40;74.90;;;;;;5040869;28;20487;-46
2022/03/31 05:42:45;;;;;;;22.00;13.03;;;7.40;75.10;;;;;;5038996;28;20497;-46
2022/03/31 05:45:13;;;;;;;24.10;12.60;;;7.40;75.20;;;;;;5041454;28;20443;-46
2022/03/31 05:47:43;;;;;;;22.83;13.40;;;7.40;75.20;;;;;;5054312;28;20539;-46
2022/03/31 05:50:11;;;;;;;20.03;14.20;;;7.40;74.80;;;;;;5057237;28;20450;-46
2022/03/31 05:52:38;;;;;;;24.47;14.63;;;7.50;74.40;;;;;;5041070;28;20470;-46
2022/03/31 05:55:07;;;;;;;19.40;11.57;;;7.50;74.30;;;;;;5038071;28;21008;-46
2022/03/31 05:57:35;;;;;;;21.10;13.10;;;7.60;74.50;;;;;;5054919;28;20969;-46
2022/03/31 06:00:08;;;;;;;21.90;12.30;;;7.60;74.40;;;;;;5055153;28;20490;-46
2022/03/31 06:02:36;;;;;;;22.60;13.20;;;7.70;74.50;;;;;;5054313;28;20536;-46
2022/03/31 06:05:15;;;;;;;24.70;13.80;;;7.70;74.30;;;;;;5056869;28;20835;-46
2022/03/31 06:07:42;;;;;;;22.10;13.00;;;7.70;74.10;;;;;;5053548;28;20461;-46
2022/03/31 06:10:09;;;;;;;22.13;12.83;;;7.70;73.50;;;;;;5054266;28;20471;-46
2022/03/31 06:12:37;;;;;;;21.90;12.63;;;7.80;73.60;;;;;;5058448;28;20465;-46
2022/03/31 06:15:06;;;;;;;21.97;13.37;;;7.80;73.50;;;;;;5054223;28;20494;-46
2022/03/31 06:17:40;;;;;;;21.90;14.73;;;7.80;73.10;;;;;;5041785;28;20466;-46
2022/03/31 06:20:09;;;;;;;23.57;14.10;;;7.80;72.70;;;;;;5054399;28;20490;-46
2022/03/31 06:22:37;;;;;;;20.80;12.70;;;7.80;72.70;;;;;;5055569;28;21239;-46
2022/03/31 06:25:10;;;;;;;22.90;13.43;;;7.80;72.90;;;;;;5051809;28;21268;-46
2022/03/31 06:27:38;;;;;;;21.67;13.00;;;7.90;72.70;;;;;;5053942;28;20486;-46
2022/03/31 06:30:06;;;;;;;22.60;13.77;;;7.90;72.50;;;;;;5051473;28;20818;-46
2022/03/31 06:32:33;;;;;;;17.53;11.23;;;7.90;72.60;;;;;;5041042;28;20563;-46
2022/03/31 06:35:00;;;;;;;24.00;14.03;;;7.90;72.50;;;;;;5036559;28;20972;-46
2022/03/31 06:37:27;;;;;;;21.40;13.40;;;7.90;72.70;;;;;;5040506;28;20484;-46
2022/03/31 06:39:54;;;;;;;19.73;14.00;;;8.00;72.90;;;;;;5019717;28;20502;-46
2022/03/31 06:42:21;;;;;;;22.00;14.37;;;8.00;73.30;;;;;;5037112;28;20464;-46
2022/03/31 06:44:55;;;;;;;21.17;13.47;;;8.10;73.30;;;;;;5026562;28;20477;-46
2022/03/31 06:47:45;;;;;;;20.83;12.50;;;8.10;72.40;;;;;;5038626;28;20437;-46
2022/03/31 06:50:13;;;;;;;21.93;13.80;;;8.10;72.60;;;;;;5038043;28;20499;-46
2022/03/31 06:52:39;;;;;;;19.90;13.00;;;8.20;73.10;;;;;;5038027;28;20552;-46
2022/03/31 06:55:07;;;;;;;26.47;15.30;;;8.20;72.90;;;;;;5037845;28;20444;-46
2022/03/31 06:57:34;;;;;;;24.33;13.90;;;8.30;71.90;;;;;;5037297;28;20524;-46
2022/03/31 07:00:00;;;;;;;22.00;13.73;;;8.30;72.10;;;;;;5037038;28;20499;-46
2022/03/31 07:02:27;;;;;;;25.13;13.80;;;8.30;71.40;;;;;;5019155;28;20463;-46
2022/03/31 07:04:54;;;;;;;22.10;12.90;;;8.30;71.20;;;;;;5018730;28;20460;-46
2022/03/31 07:07:21;;;;;;;24.80;14.13;;;8.30;71.10;;;;;;5034580;28;20467;-46
2022/03/31 07:09:48;;;;;;;20.07;13.10;;;8.30;70.80;;;;;;5036871;28;20810;-46
2022/03/31 07:12:15;;;;;;;25.93;14.27;;;8.30;70.70;;;;;;5039160;28;20463;-46
2022/03/31 07:14:41;;;;;;;21.60;14.00;;;8.30;70.70;;;;;;5037355;28;20441;-46
2022/03/31 07:17:08;;;;;;;26.33;14.47;;;8.20;70.40;;;;;;5038211;28;20819;-46
2022/03/31 07:19:35;;;;;;;22.50;13.93;;;8.30;71.20;;;;;;5037120;28;20453;-46
2022/03/31 07:22:02;;;;;;;19.17;11.13;;;8.30;71.10;;;;;;5035953;28;20478;-46
2022/03/31 07:24:29;;;;;;;21.93;13.67;;;8.30;71.30;;;;;;5003172;28;20528;-46
2022/03/31 07:26:56;;;;;;;23.80;14.63;;;8.40;72.10;;;;;;5035934;28;20456;-46
2022/03/31 07:29:23;;;;;;;21.60;13.10;;;8.40;71.60;;;;;;5037035;28;20457;-46
2022/03/31 07:31:50;;;;;;;19.80;14.33;;;8.40;70.00;;;;;;5037505;28;20486;-46
2022/03/31 07:34:17;;;;;;;25.40;15.40;;;8.40;70.20;;;;;;5035926;28;20451;-46
2022/03/31 07:36:44;;;;;;;25.43;16.10;;;8.40;70.20;;;;;;5036682;28;20534;-46
2022/03/31 07:39:10;;;;;;;19.33;13.80;;;8.50;70.00;;;;;;5035686;28;20460;-46
2022/03/31 07:41:37;;;;;;;20.17;12.67;;;8.50;70.10;;;;;;5034164;28;20582;-46
2022/03/31 07:44:04;;;;;;;19.93;11.67;;;8.60;69.80;;;;;;5038090;28;20512;-46
2022/03/31 07:46:32;;;;;;;19.60;12.87;;;8.60;68.60;;;;;;5036921;28;20456;-45
2022/03/31 07:48:59;;;;;;;21.70;12.60;;;8.40;68.90;;;;;;5036555;28;21023;-46
2022/03/31 07:51:27;;;;;;;22.40;13.60;;;8.50;70.10;;;;;;5035597;28;20471;-45
2022/03/31 07:53:53;;;;;;;21.70;13.43;;;8.50;69.80;;;;;;5018265;28;20535;-46
2022/03/31 07:56:20;;;;;;;23.17;14.30;;;8.50;69.40;;;;;;5032905;28;20464;-46
2022/03/31 07:58:47;;;;;;;19.97;13.60;;;8.50;69.10;;;;;;5018162;28;20491;-46
2022/03/31 08:01:14;;;;;;;21.20;13.40;;;8.60;70.60;;;;;;5020666;28;20569;-46
2022/03/31 08:03:41;;;;;;;18.97;13.20;;;8.60;69.90;;;;;;5034401;28;20471;-46
2022/03/31 08:06:08;;;;;;;21.47;12.80;;;8.60;69.30;;;;;;5034261;28;20471;-46
2022/03/31 08:08:35;;;;;;;20.40;13.77;;;8.60;68.70;;;;;;5033441;28;20459;-46
2022/03/31 08:11:02;;;;;;;26.30;15.40;;;8.60;68.50;;;;;;5015331;28;21005;-46
2022/03/31 08:13:29;;;;;;;24.00;15.87;;;8.50;69.00;;;;;;5034821;28;20976;-46
2022/03/31 08:15:58;;;;;;;20.47;13.13;;;8.60;69.70;;;;;;5034639;28;20457;-46
2022/03/31 08:18:28;;;;;;;23.07;13.73;;;8.70;70.20;;;;;;5020075;28;20452;-46
2022/03/31 08:20:57;;;;;;;21.67;14.30;;;8.70;69.30;;;;;;5033122;28;20490;-46
2022/03/31 08:23:25;;;;;;;22.40;14.20;;;8.80;70.00;;;;;;5017113;28;21227;-46
2022/03/31 08:25:54;;;;;;;22.50;13.40;;;8.70;69.40;;;;;;5035600;28;20512;-46
2022/03/31 08:28:21;;;;;;;20.07;13.80;;;8.80;69.20;;;;;;5034408;28;20453;-45
2022/03/31 08:30:48;;;;;;;23.60;14.60;;;8.90;69.40;;;;;;5035148;28;20624;-45
2022/03/31 08:33:15;;;;;;;27.33;14.30;;;8.90;69.60;;;;;;5033986;28;20462;-45
2022/03/31 08:35:44;;;;;;;21.80;13.80;;;9.00;69.00;;;;;;5015795;28;20805;-45
2022/03/31 08:38:11;;;;;;;18.63;13.00;;;9.00;69.00;;;;;;5033996;28;20465;-46
2022/03/31 08:40:45;;;;;;;23.57;14.07;;;9.00;68.80;;;;;;5033433;28;20528;-46
2022/03/31 08:43:12;;;;;;;18.70;13.43;;;9.00;68.80;;;;;;5035477;28;20554;-46
2022/03/31 08:45:40;;;;;;;17.93;12.57;;;9.10;69.20;;;;;;5035101;28;20491;-46
2022/03/31 08:48:08;;;;;;;21.13;12.77;;;9.20;68.90;;;;;;5032387;28;20457;-46
2022/03/31 08:50:36;;;;;;;20.80;12.93;;;9.20;68.60;;;;;;5032468;28;20471;-45
2022/03/31 08:53:04;;;;;;;19.57;12.50;;;9.30;68.80;;;;;;5034741;28;20722;-45
2022/03/31 08:55:31;;;;;;;22.50;14.10;;;9.40;69.10;;;;;;5035489;28;20546;-46
2022/03/31 08:57:58;;;;;;;19.30;12.50;;;9.40;67.90;;;;;;5036704;28;20467;-45
2022/03/31 09:00:25;;;;;;;21.27;14.37;;;9.40;67.80;;;;;;5037859;28;20492;-46
2022/03/31 09:03:01;;;;;;;21.40;14.00;;;9.50;68.30;;;;;;5019203;28;20458;-46
2022/03/31 09:05:35;;;;;;;28.43;15.60;;;9.50;68.30;;;;;;5039467;28;20451;-45
2022/03/31 09:08:05;;;;;;;21.73;13.73;;;9.50;67.00;;;;;;5036849;28;20479;-46
2022/03/31 09:10:36;;;;;;;20.20;13.07;;;9.50;66.90;;;;;;5038352;28;20904;-46
2022/03/31 09:13:05;;;;;;;20.83;14.57;;;9.50;67.00;;;;;;5034713;28;20453;-46
2022/03/31 09:15:33;;;;;;;24.43;14.50;;;9.50;67.50;;;;;;5037560;28;20470;-46
2022/03/31 09:18:01;;;;;;;25.07;14.20;;;9.50;67.80;;;;;;5036970;28;20939;-46
2022/03/31 09:20:39;;;;;;;20.70;14.30;;;9.50;67.50;;;;;;5037088;28;20579;-45
2022/03/31 09:23:06;;;;;;;25.70;14.97;;;9.40;66.70;;;;;;5019828;28;20515;-45
2022/03/31 09:25:33;;;;;;;22.00;13.73;;;9.40;67.00;;;;;;5037156;28;21059;-46
2022/03/31 09:28:18;;;;;;;23.70;15.13;;;9.40;67.20;;;;;;5038378;28;20452;-46
2022/03/31 09:30:56;;;;;;;20.10;12.70;;;9.30;67.00;;;;;;5018852;28;20484;-46
2022/03/31 09:33:27;;;;;;;24.90;14.43;;;9.30;67.00;;;;;;5019599;28;20536;-46
2022/03/31 09:35:58;;;;;;;27.83;14.03;;;9.30;67.30;;;;;;5040529;28;20467;-46
2022/03/31 09:38:25;;;;;;;21.63;15.17;;;9.30;67.40;;;;;;5037232;28;20478;-46
2022/03/31 09:40:53;;;;;;;20.50;14.50;;;9.40;67.70;;;;;;5034751;28;20594;-46
2022/03/31 09:43:20;;;;;;;18.97;14.30;;;9.40;68.20;;;;;;5035027;28;20460;-46
2022/03/31 09:45:48;;;;;;;24.30;15.57;;;9.40;67.90;;;;;;5035687;28;20460;-46
2022/03/31 09:48:24;;;;;;;21.93;14.13;;;9.50;68.00;;;;;;5036354;28;20492;-46
2022/03/31 09:50:51;;;;;;;26.60;14.63;;;9.50;66.90;;;;;;5022173;28;20821;-46
2022/03/31 09:53:18;;;;;;;21.73;14.50;;;9.60;66.90;;;;;;5035996;28;20540;-46
2022/03/31 09:55:47;;;;;;;25.87;14.60;;;9.50;66.50;;;;;;5032259;28;20491;-46
2022/03/31 09:58:19;;;;;;;22.47;14.70;;;9.60;66.80;;;;;;5017366;28;20464;-46
2022/03/31 10:00:46;;;;;;;25.10;15.30;;;9.60;66.60;;;;;;5033401;28;20583;-46
2022/03/31 10:03:15;;;;;;;24.00;15.40;;;9.60;67.20;;;;;;5034151;28;20976;-46
2022/03/31 10:05:45;;;;;;;22.97;14.93;;;9.70;67.30;;;;;;5035104;28;20523;-47
2022/03/31 10:08:13;;;;;;;22.43;14.17;;;9.80;67.40;;;;;;5034381;28;20449;-46
2022/03/31 10:10:40;;;;;;;23.77;15.53;;;9.80;66.00;;;;;;5034307;28;20492;-46
2022/03/31 10:13:19;;;;;;;26.50;15.87;;;9.80;66.60;;;;;;5016091;28;20461;-46
2022/03/31 10:15:46;;;;;;;22.70;14.53;;;9.80;66.90;;;;;;5034178;28;20832;-47
2022/03/31 10:18:15;;;;;;;24.80;15.30;;;9.80;66.70;;;;;;5034937;28;20458;-46
2022/03/31 10:20:59;;;;;;;26.40;15.93;;;9.90;67.00;;;;;;5033214;28;20483;-46
2022/03/31 10:26:22;;;;;;;27.50;16.47;;;9.90;66.30;;;;;;5033714;28;20929;-47
2022/03/31 10:29:00;;;;;;;23.47;14.80;;;10.00;66.90;;;;;;5033316;28;20457;-47
2022/03/31 10:31:38;;;;;;;26.13;15.57;;;10.00;66.90;;;;;;5034226;28;21200;-46
2022/03/31 10:34:07;;;;;;;21.73;16.10;;;10.10;66.50;;;;;;5032887;28;20460;-47
2022/03/31 10:36:38;;;;;;;27.30;15.30;;;10.20;66.30;;;;;;5032443;28;20555;-46
2022/03/31 10:39:08;;;;;;;22.20;15.57;;;10.10;66.70;;;;;;5031920;28;20466;-47
2022/03/31 10:41:37;;;;;;;24.37;16.40;;;10.20;66.80;;;;;;5032974;28;20548;-47
2022/03/31 10:44:13;;;;;;;26.07;15.60;;;10.20;66.30;;;;;;5027325;28;20459;-47
2022/03/31 10:46:43;;;;;;;25.90;16.50;;;10.10;65.50;;;;;;5033192;28;20955;-46
2022/03/31 10:49:13;;;;;;;23.70;15.37;;;10.00;65.70;;;;;;5012982;28;20826;-47
2022/03/31 10:51:41;;;;;;;22.27;15.33;;;10.10;66.60;;;;;;5033092;28;21165;-47
2022/03/31 10:54:12;;;;;;;25.63;16.87;;;10.20;66.80;;;;;;5029618;28;20488;-45
2022/03/31 10:56:40;;;;;;;25.43;17.70;;;10.20;66.20;;;;;;5032328;28;20468;-46
2022/03/31 10:59:07;;;;;;;28.53;17.60;;;10.30;66.20;;;;;;5031122;28;20461;-46
2022/03/31 11:01:36;;;;;;;27.17;17.30;;;10.40;66.60;;;;;;5029918;28;20497;-46
2022/03/31 11:04:11;;;;;;;24.20;16.30;;;10.60;66.20;;;;;;5031605;28;20455;-45
2022/03/31 11:06:48;;;;;;;21.30;15.17;;;10.70;66.10;;;;;;5030643;28;20502;-45
2022/03/31 11:09:23;;;;;;;27.37;15.20;;;10.90;65.20;;;;;;5026985;28;20468;-45
2022/03/31 11:11:55;;;;;;;27.10;17.70;;;10.90;65.10;;;;;;5029042;28;20472;-46
2022/03/31 11:14:22;;;;;;;24.00;16.77;;;11.00;65.00;;;;;;5031131;28;20820;-46
2022/03/31 11:16:49;;;;;;;26.73;18.40;;;10.90;65.30;;;;;;5029532;28;20496;-46
2022/03/31 11:19:19;;;;;;;26.17;16.63;;;11.00;65.50;;;;;;5029784;28;20465;-47
2022/03/31 11:21:47;;;;;;;25.13;16.90;;;11.00;65.40;;;;;;5015454;28;20562;-46
2022/03/31 11:24:23;;;;;;;35.83;22.33;;;11.00;65.20;;;;;;5028326;28;20468;-46
2022/03/31 11:26:53;;;;;;;27.13;17.40;;;11.10;64.50;;;;;;5030639;28;20522;-46
2022/03/31 11:29:24;;;;;;;23.70;16.17;;;11.10;64.60;;;;;;5033439;28;20504;-46
2022/03/31 11:31:52;;;;;;;28.47;20.17;;;11.20;63.70;;;;;;5027635;28;20571;-45
2022/03/31 11:34:30;;;;;;;28.23;16.70;;;11.10;64.10;;;;;;5014549;28;20552;-46
2022/03/31 11:37:00;;;;;;;21.40;14.97;;;11.10;64.20;;;;;;5032816;28;20448;-46
2022/03/31 11:39:30;;;;;;;27.87;15.63;;;11.10;64.40;;;;;;5029164;28;21118;-46
2022/03/31 11:42:00;;;;;;;22.93;14.00;;;11.10;64.90;;;;;;5031818;28;20484;-46
2022/03/31 11:44:32;;;;;;;26.17;16.10;;;11.10;64.00;;;;;;5028937;28;20851;-46
2022/03/31 11:47:00;;;;;;;26.10;16.60;;;11.10;64.00;;;;;;5030227;28;20495;-46
2022/03/31 11:49:27;;;;;;;27.13;16.40;;;11.00;64.10;;;;;;5030569;28;20457;-46
2022/03/31 11:51:56;;;;;;;24.87;15.97;;;10.90;64.20;;;;;;5030625;28;20891;-46
2022/03/31 11:54:25;;;;;;;21.90;15.47;;;10.90;63.80;;;;;;5030133;28;20483;-46
2022/03/31 11:57:07;;;;;;;23.30;16.03;;;10.80;64.10;;;;;;5026087;28;20535;-46
2022/03/31 11:59:35;;;;;;;20.13;14.60;;;10.80;65.30;;;;;;5009013;28;20491;-46
2022/03/31 12:02:11;;;;;;;23.30;15.50;;;10.80;65.10;;;;;;5029155;28;20498;-46
2022/03/31 12:04:38;;;;;;;28.07;20.00;;;10.80;65.20;;;;;;5014885;28;20527;-46
2022/03/31 12:07:05;;;;;;;28.03;17.77;;;10.80;64.70;;;;;;5013734;28;20492;-46
2022/03/31 12:09:32;;;;;;;23.43;15.67;;;10.80;64.30;;;;;;5028614;28;20463;-46
2022/03/31 12:11:59;;;;;;;24.00;14.10;;;10.90;64.20;;;;;;5027739;28;20460;-46
2022/03/31 12:14:28;;;;;;;24.50;15.77;;;10.90;64.50;;;;;;5031158;28;20865;-46
2022/03/31 12:16:56;;;;;;;24.00;15.53;;;11.00;64.60;;;;;;5030228;28;20532;-47
2022/03/31 12:19:24;;;;;;;20.23;12.87;;;11.00;64.60;;;;;;5030583;28;20563;-46
2022/03/31 12:21:58;;;;;;;18.77;14.37;;;11.10;64.20;;;;;;5029634;28;20929;-45
2022/03/31 12:24:25;;;;;;;22.80;16.40;;;11.00;64.80;;;;;;5011942;28;20465;-46
2022/03/31 12:26:55;;;;;;;21.30;15.90;;;11.00;64.20;;;;;;5032725;28;20551;-46
2022/03/31 12:29:24;;;;;;;22.47;15.43;;;10.90;63.70;;;;;;5011845;28;20466;-46
2022/03/31 12:32:06;;;;;;;28.53;17.47;;;10.90;64.50;;;;;;5011960;28;20492;-46
2022/03/31 12:34:36;;;;;;;22.13;14.50;;;10.90;65.50;;;;;;5011563;28;20469;-46
2022/03/31 12:37:04;;;;;;;23.83;15.13;;;11.00;65.60;;;;;;5029587;28;20488;-46
2022/03/31 12:39:40;;;;;;;17.17;13.03;;;11.00;65.80;;;;;;5028569;28;20806;-46
2022/03/31 12:42:10;;;;;;;21.80;15.20;;;11.00;64.90;;;;;;5015197;28;20583;-46
2022/03/31 12:44:41;;;;;;;22.00;15.07;;;11.10;65.40;;;;;;5030225;28;20512;-46
2022/03/31 12:47:09;;;;;;;17.67;13.63;;;11.10;65.20;;;;;;5030077;28;20825;-46
2022/03/31 12:49:39;;;;;;;22.43;14.57;;;11.10;65.60;;;;;;5026833;28;20868;-46